Terminal Aerodrome Forecast
Issued by NWS Charleston, WV

Home | Current Version | Previous Version | Text Only | Print | Product List | Glossary On
Versions: 1 2 3 4 5 6 7 8 9 10 11 12 13 14 15 16 17 18
000
FTUS41 KRLX 280500
TAFCRW
TAF
KCRW 280527Z 2806/2906 19008KT P6SM BKN040 OVC100
     FM280900 23005KT 6SM -SHRA SCT022 OVC040
     FM281100 VRB03KT 4SM -SHRA BR BKN015 OVC025
     FM281400 VRB03KT 2SM -SHRA BR OVC008
     FM282000 VRB04KT 3SM -RA BR OVC015=

USA.gov is the U.S. government's official web portal to all federal, state and local government web resources and services.